Terminal Aerodrome Forecast
Issued by NWS

Home | Current Version | Previous Version | Graphics & Text | Print | Product List | Glossary On
Versions: 1 2 3 4 5 6 7 8 9 10 11 12 13
000
FTUS43 KFGF 030500
TAFBJI
TAF
KBJI 030520Z 0306/0406 18006KT P6SM SCT100 BKN200
     FM031400 31013G21KT P6SM SCT120=

USA.gov is the U.S. government's official web portal to all federal, state and local government web resources and services.